N2744X BGBW-BIRK
Flight info
| Callsign | N2744X |
|---|---|
| Flight time | 3h 13m |
| Altitude | 25000 |
| Route | 62N040W 63N030W DCT EPENI DCT ELDIS |
| Aircraft | C414/L-SBDFGRY/S |
Departure
| Time | 2026-04-27 15:17 |
|---|---|
| Airport | Narsarsuaq Airport (BGBW) |
Arrival
| Time | 2026-04-27 18:30 |
|---|---|
| Airport | Reykjavík Domestic Airport (BIRK) |
| Time | Latitude | Longitude | Altitude | Speed | Heading |
|---|---|---|---|---|---|
| 2026-04-27 15:08 | 61.16117 | -45.41627 | 67 ft | 0 kts | 217° |
| 2026-04-27 15:14 | 61.16116 | -45.41628 | 67 ft | 2 kts | 216° |
| 2026-04-27 15:14 | 61.16072 | -45.41709 | 66 ft | 14 kts | 250° |
| 2026-04-27 15:15 | 61.16165 | -45.41682 | 67 ft | 23 kts | 316° |
| 2026-04-27 15:15 | 61.16294 | -45.41862 | 67 ft | 24 kts | 30° |
| 2026-04-27 15:15 | 61.16428 | -45.41613 | 64 ft | 28 kts | 40° |
| 2026-04-27 15:15 | 61.16584 | -45.41330 | 66 ft | 31 kts | 52° |
| 2026-04-27 15:16 | 61.16602 | -45.41309 | 65 ft | 6 kts | 221° |
| 2026-04-27 15:16 | 61.16580 | -45.41348 | 66 ft | 0 kts | 221° |
| 2026-04-27 15:16 | 61.16499 | -45.41487 | 64 ft | 44 kts | 220° |
| 2026-04-27 15:16 | 61.16127 | -45.42146 | 71 ft | 94 kts | 220° |
| 2026-04-27 15:17 | 61.15521 | -45.42912 | 281 ft | 112 kts | 186° |
| 2026-04-27 15:17 | 61.14715 | -45.42778 | 600 ft | 121 kts | 195° |
| 2026-04-27 15:17 | 61.14123 | -45.44035 | 926 ft | 133 kts | 247° |
| 2026-04-27 15:17 | 61.14022 | -45.45948 | 1191 ft | 140 kts | 272° |
| 2026-04-27 15:18 | 61.14447 | -45.47751 | 1415 ft | 149 kts | 319° |
| 2026-04-27 15:18 | 61.15456 | -45.48207 | 1689 ft | 157 kts | 13° |
| 2026-04-27 15:18 | 61.16294 | -45.46859 | 1995 ft | 156 kts | 66° |
| 2026-04-27 15:18 | 61.16361 | -45.44708 | 2328 ft | 151 kts | 106° |
| 2026-04-27 15:19 | 61.16233 | -45.42532 | 2664 ft | 156 kts | 91° |
| 2026-04-27 15:19 | 61.16486 | -45.40318 | 2989 ft | 160 kts | 73° |
| 2026-04-27 15:19 | 61.16865 | -45.38143 | 3275 ft | 161 kts | 72° |
| 2026-04-27 15:19 | 61.17256 | -45.35955 | 3558 ft | 163 kts | 72° |
| 2026-04-27 15:20 | 61.17651 | -45.33753 | 3833 ft | 163 kts | 72° |
| 2026-04-27 15:20 | 61.18036 | -45.31585 | 4106 ft | 162 kts | 72° |
| 2026-04-27 15:20 | 61.18429 | -45.29386 | 4370 ft | 163 kts | 72° |
| 2026-04-27 15:20 | 61.18822 | -45.27169 | 4636 ft | 165 kts | 71° |
| 2026-04-27 15:21 | 61.19222 | -45.24928 | 4899 ft | 166 kts | 70° |
| 2026-04-27 15:21 | 61.19617 | -45.22693 | 5162 ft | 164 kts | 69° |
| 2026-04-27 15:21 | 61.20015 | -45.20459 | 5440 ft | 166 kts | 69° |
| 2026-04-27 15:21 | 61.20416 | -45.18187 | 5717 ft | 169 kts | 68° |
| 2026-04-27 15:22 | 61.20824 | -45.15878 | 5979 ft | 171 kts | 68° |
| 2026-04-27 15:22 | 61.21236 | -45.13550 | 6242 ft | 173 kts | 68° |
| 2026-04-27 15:22 | 61.21648 | -45.11210 | 6498 ft | 177 kts | 67° |
| 2026-04-27 15:22 | 61.22069 | -45.08818 | 6763 ft | 176 kts | 66° |
| 2026-04-27 15:23 | 61.22488 | -45.06428 | 7025 ft | 176 kts | 66° |
| 2026-04-27 15:23 | 61.22910 | -45.04037 | 7291 ft | 176 kts | 65° |
| 2026-04-27 15:23 | 61.23330 | -45.01640 | 7569 ft | 178 kts | 65° |
| 2026-04-27 15:23 | 61.23756 | -44.99207 | 7845 ft | 181 kts | 64° |
| 2026-04-27 15:24 | 61.24191 | -44.96724 | 8124 ft | 185 kts | 64° |
| 2026-04-27 15:24 | 61.24629 | -44.94210 | 8397 ft | 185 kts | 63° |
| 2026-04-27 15:24 | 61.25066 | -44.91708 | 8674 ft | 183 kts | 62° |
| 2026-04-27 15:24 | 61.25489 | -44.89274 | 8930 ft | 180 kts | 62° |
| 2026-04-27 15:25 | 61.25905 | -44.86887 | 9213 ft | 173 kts | 61° |
| 2026-04-27 15:25 | 61.26318 | -44.84529 | 9474 ft | 176 kts | 61° |
| 2026-04-27 15:25 | 61.26739 | -44.82106 | 9725 ft | 179 kts | 61° |
| 2026-04-27 15:25 | 61.27160 | -44.79667 | 9981 ft | 179 kts | 61° |
| 2026-04-27 15:26 | 61.27584 | -44.77222 | 10243 ft | 180 kts | 61° |
| 2026-04-27 15:26 | 61.28011 | -44.74755 | 10504 ft | 182 kts | 61° |
| 2026-04-27 15:26 | 61.28439 | -44.72280 | 10768 ft | 183 kts | 61° |
| 2026-04-27 15:26 | 61.28869 | -44.69789 | 11029 ft | 183 kts | 61° |
| 2026-04-27 15:27 | 61.29293 | -44.67320 | 11299 ft | 184 kts | 61° |
| 2026-04-27 15:27 | 61.29725 | -44.64812 | 11570 ft | 185 kts | 62° |
| 2026-04-27 15:27 | 61.30158 | -44.62292 | 11835 ft | 185 kts | 62° |
| 2026-04-27 15:27 | 61.30589 | -44.59774 | 12113 ft | 184 kts | 61° |
| 2026-04-27 15:28 | 61.31023 | -44.57253 | 12325 ft | 188 kts | 61° |
| 2026-04-27 15:28 | 61.31470 | -44.54651 | 12473 ft | 194 kts | 62° |
| 2026-04-27 15:28 | 61.31926 | -44.51976 | 12622 ft | 198 kts | 62° |
| 2026-04-27 15:28 | 61.32390 | -44.49250 | 12776 ft | 201 kts | 62° |
| 2026-04-27 15:29 | 61.32861 | -44.46483 | 12925 ft | 204 kts | 62° |
| 2026-04-27 15:29 | 61.33335 | -44.43693 | 13066 ft | 205 kts | 62° |
| 2026-04-27 15:29 | 61.33806 | -44.40917 | 13196 ft | 206 kts | 63° |
| 2026-04-27 15:29 | 61.34284 | -44.38097 | 13318 ft | 207 kts | 63° |
| 2026-04-27 15:30 | 61.34763 | -44.35269 | 13448 ft | 207 kts | 63° |
| 2026-04-27 15:30 | 61.35242 | -44.32436 | 13573 ft | 207 kts | 63° |
| 2026-04-27 15:30 | 61.35721 | -44.29601 | 13701 ft | 208 kts | 63° |
| 2026-04-27 15:30 | 61.36199 | -44.26760 | 13825 ft | 208 kts | 62° |
| 2026-04-27 15:31 | 61.36679 | -44.23913 | 13949 ft | 208 kts | 62° |
| 2026-04-27 15:31 | 61.37157 | -44.21065 | 14073 ft | 208 kts | 62° |
| 2026-04-27 15:31 | 61.37636 | -44.18209 | 14199 ft | 208 kts | 62° |
| 2026-04-27 15:31 | 61.38107 | -44.15397 | 14322 ft | 209 kts | 62° |
| 2026-04-27 15:32 | 61.38586 | -44.12539 | 14446 ft | 209 kts | 62° |
| 2026-04-27 15:32 | 61.39063 | -44.09679 | 14574 ft | 209 kts | 62° |
| 2026-04-27 15:32 | 61.39541 | -44.06812 | 14697 ft | 209 kts | 62° |
| 2026-04-27 15:32 | 61.40019 | -44.03942 | 14823 ft | 209 kts | 62° |
| 2026-04-27 15:33 | 61.40497 | -44.01067 | 14948 ft | 210 kts | 61° |
| 2026-04-27 15:33 | 61.40974 | -43.98189 | 15068 ft | 210 kts | 61° |
| 2026-04-27 15:33 | 61.41444 | -43.95357 | 15197 ft | 209 kts | 61° |
| 2026-04-27 15:33 | 61.41919 | -43.92486 | 15320 ft | 209 kts | 61° |
| 2026-04-27 15:34 | 61.42392 | -43.89617 | 15449 ft | 209 kts | 61° |
| 2026-04-27 15:34 | 61.42865 | -43.86754 | 15576 ft | 208 kts | 61° |
| 2026-04-27 15:34 | 61.43337 | -43.83890 | 15707 ft | 208 kts | 60° |
| 2026-04-27 15:34 | 61.43808 | -43.81023 | 15837 ft | 208 kts | 61° |
| 2026-04-27 15:35 | 61.44278 | -43.78160 | 15969 ft | 209 kts | 62° |
| 2026-04-27 15:35 | 61.44748 | -43.75292 | 16101 ft | 209 kts | 62° |
| 2026-04-27 15:35 | 61.45217 | -43.72422 | 16233 ft | 209 kts | 63° |
| 2026-04-27 15:35 | 61.45681 | -43.69587 | 16368 ft | 209 kts | 63° |
| 2026-04-27 15:36 | 61.46152 | -43.66700 | 16503 ft | 210 kts | 64° |
| 2026-04-27 15:36 | 61.46623 | -43.63804 | 16633 ft | 211 kts | 64° |
| 2026-04-27 15:36 | 61.47096 | -43.60899 | 16782 ft | 211 kts | 64° |
| 2026-04-27 15:36 | 61.47569 | -43.57983 | 16921 ft | 212 kts | 64° |
| 2026-04-27 15:37 | 61.48041 | -43.55066 | 17049 ft | 211 kts | 64° |
| 2026-04-27 15:37 | 61.48511 | -43.52159 | 17191 ft | 211 kts | 65° |
| 2026-04-27 15:37 | 61.48975 | -43.49291 | 17320 ft | 211 kts | 65° |
| 2026-04-27 15:37 | 61.49443 | -43.46390 | 17448 ft | 210 kts | 65° |
| 2026-04-27 15:38 | 61.49910 | -43.43488 | 17565 ft | 210 kts | 65° |
| 2026-04-27 15:38 | 61.50376 | -43.40593 | 17677 ft | 210 kts | 65° |
| 2026-04-27 15:38 | 61.50841 | -43.37695 | 17792 ft | 210 kts | 66° |
| 2026-04-27 15:38 | 61.51304 | -43.34804 | 17915 ft | 209 kts | 66° |
| 2026-04-27 15:39 | 61.51766 | -43.31917 | 18030 ft | 209 kts | 66° |
| 2026-04-27 15:39 | 61.52228 | -43.29023 | 18155 ft | 210 kts | 66° |
| 2026-04-27 15:39 | 61.52693 | -43.26113 | 18283 ft | 211 kts | 66° |
| 2026-04-27 15:39 | 61.53157 | -43.23195 | 18398 ft | 211 kts | 66° |
| 2026-04-27 15:40 | 61.53615 | -43.20310 | 18526 ft | 212 kts | 66° |
| 2026-04-27 15:40 | 61.54080 | -43.17376 | 18647 ft | 213 kts | 66° |
| 2026-04-27 15:40 | 61.54548 | -43.14427 | 18773 ft | 214 kts | 67° |
| 2026-04-27 15:40 | 61.55016 | -43.11471 | 18900 ft | 213 kts | 67° |
| 2026-04-27 15:41 | 61.55482 | -43.08518 | 19026 ft | 214 kts | 67° |
| 2026-04-27 15:41 | 61.55950 | -43.05552 | 19152 ft | 214 kts | 67° |
| 2026-04-27 15:41 | 61.56416 | -43.02583 | 19281 ft | 214 kts | 67° |
| 2026-04-27 15:41 | 61.56883 | -42.99610 | 19405 ft | 214 kts | 67° |
| 2026-04-27 15:42 | 61.57344 | -42.96677 | 19534 ft | 215 kts | 67° |
| 2026-04-27 15:42 | 61.57809 | -42.93702 | 19661 ft | 215 kts | 68° |
| 2026-04-27 15:42 | 61.58275 | -42.90725 | 19795 ft | 215 kts | 68° |
| 2026-04-27 15:42 | 61.58740 | -42.87742 | 19925 ft | 215 kts | 68° |
| 2026-04-27 15:43 | 61.59206 | -42.84749 | 20058 ft | 216 kts | 68° |
| 2026-04-27 15:43 | 61.59672 | -42.81757 | 20186 ft | 216 kts | 68° |
| 2026-04-27 15:43 | 61.60137 | -42.78763 | 20318 ft | 215 kts | 68° |
| 2026-04-27 15:43 | 61.60601 | -42.75768 | 20451 ft | 215 kts | 68° |
| 2026-04-27 15:44 | 61.61065 | -42.72772 | 20578 ft | 216 kts | 68° |
| 2026-04-27 15:44 | 61.61529 | -42.69766 | 20720 ft | 216 kts | 68° |
| 2026-04-27 15:44 | 61.61985 | -42.66805 | 20850 ft | 216 kts | 69° |
| 2026-04-27 15:44 | 61.62447 | -42.63804 | 20980 ft | 216 kts | 69° |
| 2026-04-27 15:45 | 61.62908 | -42.60801 | 21127 ft | 216 kts | 69° |
| 2026-04-27 15:45 | 61.63369 | -42.57802 | 21249 ft | 216 kts | 69° |
| 2026-04-27 15:45 | 61.63828 | -42.54800 | 21390 ft | 216 kts | 69° |
| 2026-04-27 15:45 | 61.64287 | -42.51798 | 21529 ft | 216 kts | 69° |
| 2026-04-27 15:46 | 61.64746 | -42.48792 | 21664 ft | 216 kts | 69° |
| 2026-04-27 15:46 | 61.65198 | -42.45822 | 21798 ft | 216 kts | 69° |
| 2026-04-27 15:46 | 61.65656 | -42.42812 | 21937 ft | 216 kts | 70° |
| 2026-04-27 15:46 | 61.66112 | -42.39808 | 22075 ft | 215 kts | 70° |
| 2026-04-27 15:47 | 61.66567 | -42.36811 | 22219 ft | 215 kts | 70° |
| 2026-04-27 15:47 | 61.67019 | -42.33815 | 22355 ft | 215 kts | 70° |
| 2026-04-27 15:47 | 61.67472 | -42.30821 | 22498 ft | 214 kts | 70° |
| 2026-04-27 15:47 | 61.67922 | -42.27834 | 22620 ft | 214 kts | 70° |
| 2026-04-27 15:48 | 61.68370 | -42.24860 | 22730 ft | 213 kts | 70° |
| 2026-04-27 15:48 | 61.68810 | -42.21929 | 22832 ft | 212 kts | 70° |
| 2026-04-27 15:48 | 61.69254 | -42.18967 | 22946 ft | 212 kts | 71° |
| 2026-04-27 15:49 | 61.70137 | -42.13064 | 23167 ft | 211 kts | 71° |
| 2026-04-27 15:49 | 61.70577 | -42.10120 | 23280 ft | 210 kts | 71° |
| 2026-04-27 15:49 | 61.71014 | -42.07184 | 23391 ft | 210 kts | 71° |
| 2026-04-27 15:49 | 61.71450 | -42.04256 | 23500 ft | 209 kts | 71° |
| 2026-04-27 15:50 | 61.71884 | -42.01332 | 23615 ft | 209 kts | 71° |
| 2026-04-27 15:50 | 61.72317 | -41.98407 | 23729 ft | 209 kts | 72° |
| 2026-04-27 15:50 | 61.72749 | -41.95488 | 23841 ft | 208 kts | 72° |
| 2026-04-27 15:50 | 61.73179 | -41.92581 | 23948 ft | 207 kts | 72° |
| 2026-04-27 15:51 | 61.73602 | -41.89703 | 23987 ft | 211 kts | 72° |
| 2026-04-27 15:51 | 61.74042 | -41.86717 | 23991 ft | 216 kts | 72° |
| 2026-04-27 15:51 | 61.74489 | -41.83671 | 24000 ft | 219 kts | 72° |
| 2026-04-27 15:51 | 61.74943 | -41.80574 | 23998 ft | 222 kts | 72° |
| 2026-04-27 15:52 | 61.75403 | -41.77431 | 24000 ft | 226 kts | 72° |
| 2026-04-27 15:52 | 61.75868 | -41.74247 | 24001 ft | 228 kts | 72° |
| 2026-04-27 15:52 | 61.76336 | -41.71035 | 23998 ft | 229 kts | 73° |
| 2026-04-27 15:52 | 61.76806 | -41.67809 | 23995 ft | 230 kts | 73° |
| 2026-04-27 15:53 | 61.77270 | -41.64611 | 23996 ft | 231 kts | 73° |
| 2026-04-27 15:53 | 61.77743 | -41.61353 | 23994 ft | 232 kts | 73° |
| 2026-04-27 15:53 | 61.78215 | -41.58088 | 23991 ft | 233 kts | 73° |
| 2026-04-27 15:53 | 61.78688 | -41.54818 | 23990 ft | 233 kts | 73° |
| 2026-04-27 15:54 | 61.79161 | -41.51540 | 23993 ft | 233 kts | 73° |
| 2026-04-27 15:54 | 61.79632 | -41.48260 | 23988 ft | 234 kts | 74° |
| 2026-04-27 15:54 | 61.80104 | -41.44971 | 23986 ft | 234 kts | 74° |
| 2026-04-27 15:54 | 61.80569 | -41.41725 | 23986 ft | 234 kts | 74° |
| 2026-04-27 15:55 | 61.81039 | -41.38436 | 23983 ft | 234 kts | 74° |
| 2026-04-27 15:55 | 61.81357 | -41.36214 | 23981 ft | 234 kts | 74° |
| 2026-04-27 15:55 | 61.81977 | -41.31859 | 23981 ft | 234 kts | 75° |
| 2026-04-27 15:55 | 61.82445 | -41.28570 | 23973 ft | 233 kts | 75° |
| 2026-04-27 15:56 | 61.82912 | -41.25283 | 23974 ft | 233 kts | 75° |
| 2026-04-27 15:56 | 61.83376 | -41.21999 | 23971 ft | 233 kts | 75° |
| 2026-04-27 15:56 | 61.83839 | -41.18723 | 23972 ft | 232 kts | 75° |
| 2026-04-27 15:56 | 61.84302 | -41.15449 | 23966 ft | 232 kts | 75° |
| 2026-04-27 15:57 | 61.84762 | -41.12172 | 23959 ft | 232 kts | 75° |
| 2026-04-27 15:57 | 61.85215 | -41.08952 | 23966 ft | 231 kts | 75° |
| 2026-04-27 15:57 | 61.85672 | -41.05691 | 23962 ft | 231 kts | 75° |
| 2026-04-27 15:57 | 61.86128 | -41.02426 | 23963 ft | 231 kts | 76° |
| 2026-04-27 15:58 | 61.86584 | -40.99168 | 23961 ft | 231 kts | 76° |
| 2026-04-27 15:58 | 61.87037 | -40.95915 | 23957 ft | 230 kts | 76° |
| 2026-04-27 15:58 | 61.87490 | -40.92661 | 23955 ft | 230 kts | 76° |
| 2026-04-27 15:58 | 61.87941 | -40.89413 | 23954 ft | 230 kts | 76° |
| 2026-04-27 15:59 | 61.88391 | -40.86162 | 23949 ft | 230 kts | 76° |
| 2026-04-27 15:59 | 61.88840 | -40.82917 | 23946 ft | 230 kts | 76° |
| 2026-04-27 15:59 | 61.89282 | -40.79710 | 23946 ft | 229 kts | 76° |
| 2026-04-27 15:59 | 61.89729 | -40.76466 | 23942 ft | 229 kts | 77° |
| 2026-04-27 16:00 | 61.90175 | -40.73219 | 23942 ft | 229 kts | 77° |
| 2026-04-27 16:00 | 61.90477 | -40.71023 | 23943 ft | 229 kts | 77° |
| 2026-04-27 16:00 | 61.91065 | -40.66723 | 23943 ft | 229 kts | 77° |
| 2026-04-27 16:00 | 61.91509 | -40.63474 | 23938 ft | 229 kts | 77° |
| 2026-04-27 16:01 | 61.91952 | -40.60226 | 23935 ft | 229 kts | 77° |
| 2026-04-27 16:01 | 61.92394 | -40.56978 | 23934 ft | 229 kts | 77° |
| 2026-04-27 16:01 | 61.92835 | -40.53730 | 23934 ft | 229 kts | 77° |
| 2026-04-27 16:01 | 61.93269 | -40.50525 | 23930 ft | 229 kts | 78° |
| 2026-04-27 16:02 | 61.93708 | -40.47279 | 23927 ft | 229 kts | 78° |
| 2026-04-27 16:02 | 61.94147 | -40.44028 | 23925 ft | 229 kts | 78° |
| 2026-04-27 16:02 | 61.94584 | -40.40780 | 23920 ft | 229 kts | 78° |
| 2026-04-27 16:02 | 61.95021 | -40.37533 | 23921 ft | 229 kts | 78° |
| 2026-04-27 16:03 | 61.95457 | -40.34284 | 23920 ft | 229 kts | 78° |
| 2026-04-27 16:03 | 61.95892 | -40.31035 | 23915 ft | 228 kts | 78° |
| 2026-04-27 16:03 | 61.96325 | -40.27797 | 23923 ft | 228 kts | 79° |
| 2026-04-27 16:03 | 61.96757 | -40.24556 | 23927 ft | 228 kts | 79° |
| 2026-04-27 16:04 | 61.97188 | -40.21316 | 23919 ft | 228 kts | 79° |
| 2026-04-27 16:04 | 61.97612 | -40.18120 | 23917 ft | 228 kts | 79° |
| 2026-04-27 16:04 | 61.98042 | -40.14879 | 23914 ft | 227 kts | 79° |
| 2026-04-27 16:04 | 61.98469 | -40.11648 | 23911 ft | 227 kts | 79° |
| 2026-04-27 16:05 | 61.98896 | -40.08412 | 23912 ft | 227 kts | 79° |
| 2026-04-27 16:05 | 61.99322 | -40.05173 | 23912 ft | 227 kts | 80° |
| 2026-04-27 16:05 | 61.99748 | -40.01933 | 23911 ft | 227 kts | 80° |
| 2026-04-27 16:05 | 62.00193 | -39.98713 | 23913 ft | 227 kts | 78° |
| 2026-04-27 16:06 | 62.00650 | -39.95498 | 23914 ft | 227 kts | 80° |
| 2026-04-27 16:06 | 62.01080 | -39.92308 | 23914 ft | 227 kts | 80° |
| 2026-04-27 16:06 | 62.01525 | -39.89085 | 23912 ft | 227 kts | 79° |
| 2026-04-27 16:06 | 62.01974 | -39.85865 | 23911 ft | 227 kts | 80° |
| 2026-04-27 16:07 | 62.02423 | -39.82643 | 23906 ft | 227 kts | 80° |
| 2026-04-27 16:07 | 62.02870 | -39.79414 | 23910 ft | 227 kts | 80° |
| 2026-04-27 16:07 | 62.03316 | -39.76190 | 23910 ft | 226 kts | 80° |
| 2026-04-27 16:07 | 62.03761 | -39.72967 | 23908 ft | 227 kts | 81° |
| 2026-04-27 16:08 | 62.04205 | -39.69743 | 23907 ft | 227 kts | 81° |
| 2026-04-27 16:08 | 62.04649 | -39.66513 | 23907 ft | 227 kts | 81° |
| 2026-04-27 16:08 | 62.05086 | -39.63327 | 23912 ft | 226 kts | 81° |
| 2026-04-27 16:08 | 62.05528 | -39.60103 | 23912 ft | 227 kts | 81° |
| 2026-04-27 16:09 | 62.05969 | -39.56875 | 23913 ft | 227 kts | 81° |
| 2026-04-27 16:09 | 62.06850 | -39.50410 | 23907 ft | 226 kts | 82° |
| 2026-04-27 16:09 | 62.07289 | -39.47181 | 23916 ft | 227 kts | 82° |
| 2026-04-27 16:10 | 62.08165 | -39.40710 | 23915 ft | 227 kts | 82° |
| 2026-04-27 16:10 | 62.09032 | -39.34282 | 23918 ft | 227 kts | 82° |
| 2026-04-27 16:11 | 62.09468 | -39.31040 | 23917 ft | 227 kts | 83° |
| 2026-04-27 16:11 | 62.10339 | -39.24550 | 23923 ft | 227 kts | 83° |
| 2026-04-27 16:12 | 62.11204 | -39.18071 | 23925 ft | 227 kts | 83° |
| 2026-04-27 16:12 | 62.11636 | -39.14823 | 23924 ft | 227 kts | 83° |
| 2026-04-27 16:12 | 62.12498 | -39.08331 | 23927 ft | 227 kts | 84° |
| 2026-04-27 16:13 | 62.12922 | -39.05120 | 23928 ft | 227 kts | 84° |
| 2026-04-27 16:13 | 62.13781 | -38.98611 | 23931 ft | 227 kts | 84° |
| 2026-04-27 16:13 | 62.14208 | -38.95361 | 23932 ft | 227 kts | 84° |
| 2026-04-27 16:14 | 62.15062 | -38.88848 | 23938 ft | 228 kts | 84° |
| 2026-04-27 16:14 | 62.15913 | -38.82333 | 23940 ft | 227 kts | 85° |
| 2026-04-27 16:15 | 62.16755 | -38.75850 | 23946 ft | 228 kts | 85° |
| 2026-04-27 16:15 | 62.17601 | -38.69329 | 23952 ft | 227 kts | 85° |
| 2026-04-27 16:16 | 62.18442 | -38.62799 | 23961 ft | 228 kts | 85° |
| 2026-04-27 16:16 | 62.19281 | -38.56268 | 23962 ft | 227 kts | 85° |
| 2026-04-27 16:17 | 62.20110 | -38.49776 | 23969 ft | 228 kts | 86° |
| 2026-04-27 16:17 | 62.20943 | -38.43237 | 23975 ft | 227 kts | 86° |
| 2026-04-27 16:18 | 62.21772 | -38.36696 | 23978 ft | 228 kts | 86° |
| 2026-04-27 16:18 | 62.22599 | -38.30150 | 23986 ft | 227 kts | 86° |
| 2026-04-27 16:19 | 62.23010 | -38.26877 | 23989 ft | 228 kts | 86° |
| 2026-04-27 16:19 | 62.23421 | -38.23599 | 23993 ft | 228 kts | 86° |
| 2026-04-27 16:20 | 62.24645 | -38.13811 | 23997 ft | 228 kts | 87° |
| 2026-04-27 16:20 | 62.25054 | -38.10530 | 24006 ft | 228 kts | 87° |
| 2026-04-27 16:20 | 62.25869 | -38.03960 | 24010 ft | 228 kts | 87° |
| 2026-04-27 16:21 | 62.26276 | -38.00666 | 24009 ft | 229 kts | 87° |
| 2026-04-27 16:21 | 62.27490 | -37.90810 | 24019 ft | 228 kts | 87° |
| 2026-04-27 16:22 | 62.27894 | -37.87510 | 24026 ft | 229 kts | 88° |
| 2026-04-27 16:22 | 62.28702 | -37.80896 | 24015 ft | 229 kts | 88° |
| 2026-04-27 16:22 | 62.29104 | -37.77601 | 24033 ft | 228 kts | 88° |
| 2026-04-27 16:23 | 62.29505 | -37.74300 | 24038 ft | 229 kts | 88° |
| 2026-04-27 16:23 | 62.30301 | -37.67723 | 24026 ft | 229 kts | 88° |
| 2026-04-27 16:23 | 62.30700 | -37.64421 | 24045 ft | 229 kts | 88° |
| 2026-04-27 16:24 | 62.31098 | -37.61111 | 24050 ft | 229 kts | 88° |
| 2026-04-27 16:24 | 62.31896 | -37.54470 | 24046 ft | 229 kts | 88° |
| 2026-04-27 16:25 | 62.32689 | -37.47824 | 24059 ft | 230 kts | 89° |
| 2026-04-27 16:25 | 62.33484 | -37.41150 | 24052 ft | 230 kts | 89° |
| 2026-04-27 16:26 | 62.34268 | -37.34526 | 24070 ft | 230 kts | 89° |
| 2026-04-27 16:26 | 62.35056 | -37.27838 | 24066 ft | 230 kts | 89° |
| 2026-04-27 16:27 | 62.35840 | -37.21155 | 24085 ft | 231 kts | 89° |
| 2026-04-27 16:27 | 62.37013 | -37.11104 | 24094 ft | 231 kts | 90° |
| 2026-04-27 16:28 | 62.37786 | -37.04435 | 24099 ft | 231 kts | 90° |
| 2026-04-27 16:28 | 62.38564 | -36.97703 | 24106 ft | 231 kts | 90° |
| 2026-04-27 16:29 | 62.39725 | -36.87577 | 24101 ft | 232 kts | 90° |
| 2026-04-27 16:30 | 62.40491 | -36.80867 | 24121 ft | 232 kts | 90° |
| 2026-04-27 16:30 | 62.41260 | -36.74088 | 24111 ft | 233 kts | 90° |
| 2026-04-27 16:31 | 62.42410 | -36.63896 | 24134 ft | 233 kts | 91° |
| 2026-04-27 16:31 | 62.43175 | -36.57091 | 24139 ft | 233 kts | 91° |
| 2026-04-27 16:32 | 62.43931 | -36.50310 | 24143 ft | 234 kts | 91° |
| 2026-04-27 16:32 | 62.44311 | -36.46891 | 24136 ft | 234 kts | 91° |
| 2026-04-27 16:33 | 62.45069 | -36.40051 | 24149 ft | 235 kts | 91° |
| 2026-04-27 16:33 | 62.45448 | -36.36616 | 24149 ft | 235 kts | 91° |
| 2026-04-27 16:33 | 62.45827 | -36.33182 | 24143 ft | 235 kts | 91° |
| 2026-04-27 16:33 | 62.46204 | -36.29749 | 24157 ft | 235 kts | 91° |
| 2026-04-27 16:34 | 62.46581 | -36.26307 | 24160 ft | 236 kts | 91° |
| 2026-04-27 16:34 | 62.46958 | -36.22856 | 24164 ft | 236 kts | 91° |
| 2026-04-27 16:34 | 62.47329 | -36.19452 | 24151 ft | 236 kts | 91° |
| 2026-04-27 16:34 | 62.47705 | -36.16003 | 24168 ft | 236 kts | 91° |
| 2026-04-27 16:35 | 62.48080 | -36.12545 | 24166 ft | 236 kts | 91° |
| 2026-04-27 16:35 | 62.48454 | -36.09080 | 24165 ft | 237 kts | 91° |
| 2026-04-27 16:35 | 62.49203 | -36.02148 | 24173 ft | 237 kts | 91° |
| 2026-04-27 16:36 | 62.49575 | -35.98674 | 24176 ft | 237 kts | 91° |
| 2026-04-27 16:36 | 62.49948 | -35.95197 | 24180 ft | 238 kts | 91° |
| 2026-04-27 16:36 | 62.50320 | -35.91712 | 24172 ft | 238 kts | 91° |
| 2026-04-27 16:36 | 62.50687 | -35.88273 | 24181 ft | 238 kts | 91° |
| 2026-04-27 16:37 | 62.51057 | -35.84784 | 24184 ft | 238 kts | 91° |
| 2026-04-27 16:37 | 62.51428 | -35.81286 | 24187 ft | 239 kts | 92° |
| 2026-04-27 16:37 | 62.51799 | -35.77784 | 24181 ft | 239 kts | 92° |
| 2026-04-27 16:37 | 62.52168 | -35.74287 | 24190 ft | 239 kts | 92° |
| 2026-04-27 16:38 | 62.52536 | -35.70782 | 24197 ft | 239 kts | 92° |
| 2026-04-27 16:38 | 62.52904 | -35.67271 | 24197 ft | 239 kts | 92° |
| 2026-04-27 16:38 | 62.53272 | -35.63754 | 24188 ft | 240 kts | 91° |
| 2026-04-27 16:38 | 62.53640 | -35.60237 | 24199 ft | 240 kts | 92° |
| 2026-04-27 16:39 | 62.54001 | -35.56761 | 24204 ft | 240 kts | 92° |
| 2026-04-27 16:39 | 62.54368 | -35.53229 | 24200 ft | 240 kts | 92° |
| 2026-04-27 16:39 | 62.54734 | -35.49697 | 24197 ft | 240 kts | 92° |
| 2026-04-27 16:39 | 62.55098 | -35.46171 | 24207 ft | 240 kts | 92° |
| 2026-04-27 16:40 | 62.55462 | -35.42631 | 24209 ft | 241 kts | 91° |
| 2026-04-27 16:40 | 62.55826 | -35.39088 | 24208 ft | 241 kts | 92° |
| 2026-04-27 16:40 | 62.56190 | -35.35539 | 24205 ft | 241 kts | 91° |
| 2026-04-27 16:40 | 62.56552 | -35.31994 | 24213 ft | 241 kts | 91° |
| 2026-04-27 16:41 | 62.56909 | -35.28488 | 24217 ft | 242 kts | 91° |
| 2026-04-27 16:41 | 62.57270 | -35.24926 | 24218 ft | 242 kts | 91° |
| 2026-04-27 16:41 | 62.57632 | -35.21361 | 24212 ft | 242 kts | 91° |
| 2026-04-27 16:41 | 62.57992 | -35.17795 | 24222 ft | 242 kts | 91° |
| 2026-04-27 16:42 | 62.58352 | -35.14221 | 24224 ft | 243 kts | 91° |
| 2026-04-27 16:42 | 62.58711 | -35.10643 | 24222 ft | 243 kts | 91° |
| 2026-04-27 16:42 | 62.59070 | -35.07061 | 24220 ft | 243 kts | 91° |
| 2026-04-27 16:42 | 62.59429 | -35.03476 | 24226 ft | 243 kts | 91° |
| 2026-04-27 16:43 | 62.59786 | -34.99890 | 24228 ft | 244 kts | 91° |
| 2026-04-27 16:43 | 62.60139 | -34.96337 | 24229 ft | 244 kts | 91° |
| 2026-04-27 16:43 | 62.60496 | -34.92738 | 24226 ft | 244 kts | 91° |
| 2026-04-27 16:43 | 62.60852 | -34.89137 | 24235 ft | 244 kts | 91° |
| 2026-04-27 16:44 | 62.61206 | -34.85528 | 24237 ft | 245 kts | 91° |
| 2026-04-27 16:44 | 62.61562 | -34.81910 | 24237 ft | 245 kts | 91° |
| 2026-04-27 16:44 | 62.61917 | -34.78291 | 24230 ft | 245 kts | 91° |
| 2026-04-27 16:44 | 62.62271 | -34.74665 | 24238 ft | 245 kts | 91° |
| 2026-04-27 16:45 | 62.62624 | -34.71038 | 24241 ft | 246 kts | 91° |
| 2026-04-27 16:45 | 62.62972 | -34.67452 | 24245 ft | 246 kts | 91° |
| 2026-04-27 16:45 | 62.63325 | -34.63814 | 24237 ft | 246 kts | 91° |
| 2026-04-27 16:45 | 62.63676 | -34.60178 | 24244 ft | 246 kts | 91° |
| 2026-04-27 16:46 | 62.64026 | -34.56534 | 24253 ft | 246 kts | 91° |
| 2026-04-27 16:46 | 62.64377 | -34.52884 | 24252 ft | 247 kts | 91° |
| 2026-04-27 16:46 | 62.64726 | -34.49228 | 24242 ft | 247 kts | 91° |
| 2026-04-27 16:46 | 62.65076 | -34.45568 | 24253 ft | 248 kts | 91° |
| 2026-04-27 16:47 | 62.65425 | -34.41890 | 24255 ft | 248 kts | 91° |
| 2026-04-27 16:47 | 62.65770 | -34.38261 | 24256 ft | 248 kts | 91° |
| 2026-04-27 16:47 | 62.66118 | -34.34579 | 24250 ft | 248 kts | 91° |
| 2026-04-27 16:47 | 62.66465 | -34.30904 | 24259 ft | 248 kts | 91° |
| 2026-04-27 16:48 | 62.66811 | -34.27214 | 24260 ft | 249 kts | 91° |
| 2026-04-27 16:48 | 62.67158 | -34.23512 | 24265 ft | 250 kts | 91° |
| 2026-04-27 16:48 | 62.67505 | -34.19802 | 24253 ft | 251 kts | 91° |
| 2026-04-27 16:49 | 62.68192 | -34.12424 | 24265 ft | 250 kts | 91° |
| 2026-04-27 16:49 | 62.68535 | -34.08708 | 24265 ft | 250 kts | 91° |
| 2026-04-27 16:49 | 62.68878 | -34.04991 | 24265 ft | 250 kts | 91° |
| 2026-04-27 16:49 | 62.69221 | -34.01277 | 24271 ft | 250 kts | 91° |
| 2026-04-27 16:50 | 62.69561 | -33.97558 | 24269 ft | 251 kts | 91° |
| 2026-04-27 16:50 | 62.69902 | -33.93832 | 24275 ft | 251 kts | 91° |
| 2026-04-27 16:50 | 62.70242 | -33.90103 | 24273 ft | 251 kts | 91° |
| 2026-04-27 16:50 | 62.70581 | -33.86372 | 24277 ft | 251 kts | 91° |
| 2026-04-27 16:51 | 62.70919 | -33.82635 | 24278 ft | 252 kts | 91° |
| 2026-04-27 16:51 | 62.71252 | -33.78944 | 24275 ft | 252 kts | 91° |
| 2026-04-27 16:51 | 62.71590 | -33.75194 | 24273 ft | 252 kts | 91° |
| 2026-04-27 16:51 | 62.71926 | -33.71449 | 24285 ft | 252 kts | 91° |
| 2026-04-27 16:52 | 62.72262 | -33.67690 | 24279 ft | 253 kts | 91° |
| 2026-04-27 16:52 | 62.72597 | -33.63927 | 24283 ft | 253 kts | 91° |
| 2026-04-27 16:52 | 62.72932 | -33.60154 | 24277 ft | 254 kts | 91° |
| 2026-04-27 16:52 | 62.73267 | -33.56373 | 24285 ft | 254 kts | 91° |
| 2026-04-27 16:53 | 62.73602 | -33.52583 | 24284 ft | 255 kts | 91° |
| 2026-04-27 16:53 | 62.73931 | -33.48837 | 24290 ft | 255 kts | 91° |
| 2026-04-27 16:53 | 62.74265 | -33.45037 | 24282 ft | 255 kts | 91° |
| 2026-04-27 16:53 | 62.74598 | -33.41238 | 24289 ft | 255 kts | 91° |
| 2026-04-27 16:54 | 62.74928 | -33.37433 | 24290 ft | 255 kts | 91° |
| 2026-04-27 16:54 | 62.75259 | -33.33631 | 24290 ft | 256 kts | 91° |
| 2026-04-27 16:54 | 62.75589 | -33.29818 | 24290 ft | 256 kts | 91° |
| 2026-04-27 16:54 | 62.75918 | -33.26008 | 24297 ft | 256 kts | 91° |
| 2026-04-27 16:55 | 62.76245 | -33.22190 | 24292 ft | 256 kts | 91° |
| 2026-04-27 16:55 | 62.76572 | -33.18369 | 24296 ft | 257 kts | 91° |
| 2026-04-27 16:55 | 62.76896 | -33.14586 | 24293 ft | 257 kts | 91° |
| 2026-04-27 16:55 | 62.77222 | -33.10752 | 24295 ft | 257 kts | 90° |
| 2026-04-27 16:56 | 62.77547 | -33.06915 | 24298 ft | 257 kts | 90° |
| 2026-04-27 16:56 | 62.77872 | -33.03072 | 24299 ft | 257 kts | 90° |
| 2026-04-27 16:56 | 62.78196 | -32.99223 | 24299 ft | 258 kts | 90° |
| 2026-04-27 16:56 | 62.78520 | -32.95370 | 24301 ft | 258 kts | 90° |
| 2026-04-27 16:57 | 62.78842 | -32.91514 | 24300 ft | 258 kts | 90° |
| 2026-04-27 16:57 | 62.79164 | -32.87649 | 24302 ft | 259 kts | 90° |
| 2026-04-27 16:57 | 62.79485 | -32.83786 | 24302 ft | 258 kts | 90° |
| 2026-04-27 16:57 | 62.79800 | -32.79981 | 24305 ft | 258 kts | 90° |
| 2026-04-27 16:58 | 62.80119 | -32.76115 | 24304 ft | 258 kts | 90° |
| 2026-04-27 16:58 | 62.80437 | -32.72249 | 24303 ft | 258 kts | 90° |
| 2026-04-27 16:58 | 62.80753 | -32.68383 | 24307 ft | 258 kts | 90° |
| 2026-04-27 16:58 | 62.81069 | -32.64514 | 24311 ft | 259 kts | 90° |
| 2026-04-27 16:59 | 62.81384 | -32.60631 | 24313 ft | 260 kts | 90° |
| 2026-04-27 16:59 | 62.81699 | -32.56744 | 24311 ft | 260 kts | 90° |
| 2026-04-27 16:59 | 62.82014 | -32.52848 | 24307 ft | 260 kts | 90° |
| 2026-04-27 16:59 | 62.82327 | -32.48957 | 24315 ft | 260 kts | 90° |
| 2026-04-27 17:00 | 62.82740 | -32.43799 | 24316 ft | 260 kts | 90° |
| 2026-04-27 17:00 | 62.83256 | -32.37318 | 24314 ft | 260 kts | 90° |
| 2026-04-27 17:00 | 62.83565 | -32.33421 | 24322 ft | 260 kts | 90° |
| 2026-04-27 17:01 | 62.83873 | -32.29517 | 24322 ft | 261 kts | 90° |
| 2026-04-27 17:01 | 62.84180 | -32.25607 | 24321 ft | 261 kts | 90° |
| 2026-04-27 17:01 | 62.84488 | -32.21683 | 24324 ft | 261 kts | 90° |
| 2026-04-27 17:01 | 62.84790 | -32.17827 | 24321 ft | 261 kts | 90° |
| 2026-04-27 17:02 | 62.85094 | -32.13903 | 24324 ft | 262 kts | 90° |
| 2026-04-27 17:02 | 62.85399 | -32.09970 | 24329 ft | 263 kts | 90° |
| 2026-04-27 17:02 | 62.85704 | -32.06025 | 24321 ft | 263 kts | 90° |
| 2026-04-27 17:02 | 62.86008 | -32.02087 | 24332 ft | 262 kts | 90° |
| 2026-04-27 17:03 | 62.86309 | -31.98150 | 24335 ft | 262 kts | 90° |
| 2026-04-27 17:03 | 62.86609 | -31.94209 | 24331 ft | 262 kts | 90° |
| 2026-04-27 17:03 | 62.86909 | -31.90268 | 24345 ft | 262 kts | 90° |
| 2026-04-27 17:03 | 62.87207 | -31.86325 | 24349 ft | 262 kts | 90° |
| 2026-04-27 17:04 | 62.87501 | -31.82437 | 24350 ft | 262 kts | 90° |
| 2026-04-27 17:04 | 62.87797 | -31.78492 | 24354 ft | 263 kts | 90° |
| 2026-04-27 17:04 | 62.88093 | -31.74534 | 24364 ft | 264 kts | 90° |
| 2026-04-27 17:04 | 62.88389 | -31.70563 | 24354 ft | 264 kts | 90° |
| 2026-04-27 17:05 | 62.88684 | -31.66598 | 24359 ft | 264 kts | 90° |
| 2026-04-27 17:05 | 62.88978 | -31.62631 | 24350 ft | 263 kts | 90° |
| 2026-04-27 17:05 | 62.89269 | -31.58672 | 24359 ft | 263 kts | 90° |
| 2026-04-27 17:05 | 62.89461 | -31.56050 | 24367 ft | 263 kts | 90° |
| 2026-04-27 17:06 | 62.89848 | -31.50755 | 24358 ft | 263 kts | 90° |
| 2026-04-27 17:06 | 62.90133 | -31.46849 | 24360 ft | 263 kts | 90° |
| 2026-04-27 17:06 | 62.90419 | -31.42893 | 24367 ft | 263 kts | 91° |
| 2026-04-27 17:06 | 62.90706 | -31.38937 | 24612 ft | 262 kts | 97° |
| 2026-04-27 17:07 | 62.90989 | -31.35019 | 24508 ft | 259 kts | 98° |
| 2026-04-27 17:07 | 62.91266 | -31.31128 | 24388 ft | 257 kts | 98° |
| 2026-04-27 17:07 | 62.91543 | -31.27291 | 24374 ft | 252 kts | 98° |
| 2026-04-27 17:07 | 62.91811 | -31.23534 | 24364 ft | 247 kts | 99° |
| 2026-04-27 17:08 | 62.92069 | -31.19880 | 24359 ft | 244 kts | 99° |
| 2026-04-27 17:08 | 62.92324 | -31.16230 | 24362 ft | 241 kts | 99° |
| 2026-04-27 17:08 | 62.92578 | -31.12609 | 24365 ft | 239 kts | 99° |
| 2026-04-27 17:08 | 62.92829 | -31.09012 | 24364 ft | 238 kts | 99° |
| 2026-04-27 17:09 | 62.93078 | -31.05437 | 24367 ft | 236 kts | 99° |
| 2026-04-27 17:09 | 62.93325 | -31.01874 | 24365 ft | 236 kts | 99° |
| 2026-04-27 17:09 | 62.93570 | -30.98322 | 24368 ft | 235 kts | 99° |
| 2026-04-27 17:09 | 62.93815 | -30.94776 | 24368 ft | 235 kts | 99° |
| 2026-04-27 17:10 | 62.94057 | -30.91240 | 24371 ft | 234 kts | 99° |
| 2026-04-27 17:10 | 62.94296 | -30.87752 | 24372 ft | 234 kts | 99° |
| 2026-04-27 17:10 | 62.94537 | -30.84215 | 24371 ft | 234 kts | 99° |
| 2026-04-27 17:10 | 62.94776 | -30.80682 | 24371 ft | 234 kts | 99° |
| 2026-04-27 17:11 | 62.95015 | -30.77152 | 24372 ft | 234 kts | 99° |
| 2026-04-27 17:11 | 62.95490 | -30.70084 | 24375 ft | 234 kts | 99° |
| 2026-04-27 17:11 | 62.95726 | -30.66550 | 24375 ft | 234 kts | 99° |
| 2026-04-27 17:12 | 62.96196 | -30.59444 | 24380 ft | 237 kts | 99° |
| 2026-04-27 17:12 | 62.96430 | -30.55900 | 24380 ft | 239 kts | 99° |
| 2026-04-27 17:12 | 62.96668 | -30.52282 | 24380 ft | 240 kts | 99° |
| 2026-04-27 17:13 | 62.96907 | -30.48652 | 24378 ft | 240 kts | 98° |
| 2026-04-27 17:13 | 62.97145 | -30.45013 | 24381 ft | 240 kts | 99° |
| 2026-04-27 17:13 | 62.97382 | -30.41378 | 24382 ft | 240 kts | 99° |
| 2026-04-27 17:13 | 62.97617 | -30.37757 | 24383 ft | 239 kts | 99° |
| 2026-04-27 17:14 | 62.97849 | -30.34157 | 24382 ft | 237 kts | 99° |
| 2026-04-27 17:14 | 62.98079 | -30.30568 | 24378 ft | 236 kts | 99° |
| 2026-04-27 17:14 | 62.98304 | -30.27044 | 24386 ft | 236 kts | 99° |
| 2026-04-27 17:14 | 62.98531 | -30.23478 | 24381 ft | 235 kts | 99° |
| 2026-04-27 17:15 | 62.98756 | -30.19919 | 24389 ft | 235 kts | 99° |
| 2026-04-27 17:15 | 62.98981 | -30.16364 | 24389 ft | 235 kts | 99° |
| 2026-04-27 17:15 | 62.99204 | -30.12809 | 24386 ft | 235 kts | 99° |
| 2026-04-27 17:15 | 62.99351 | -30.10457 | 24387 ft | 234 kts | 99° |
| 2026-04-27 17:16 | 62.99648 | -30.05707 | 24386 ft | 234 kts | 99° |
| 2026-04-27 17:16 | 62.99868 | -30.02158 | 24386 ft | 234 kts | 100° |
| 2026-04-27 17:16 | 63.00174 | -29.98591 | 24393 ft | 244 kts | 90° |
| 2026-04-27 17:16 | 63.00671 | -29.95050 | 24390 ft | 246 kts | 89° |
| 2026-04-27 17:17 | 63.01171 | -29.91461 | 24390 ft | 245 kts | 89° |
| 2026-04-27 17:17 | 63.01657 | -29.87867 | 24390 ft | 245 kts | 90° |
| 2026-04-27 17:17 | 63.02143 | -29.84261 | 24392 ft | 246 kts | 90° |
| 2026-04-27 17:18 | 63.02955 | -29.78256 | 24396 ft | 246 kts | 89° |
| 2026-04-27 17:18 | 63.03443 | -29.74637 | 24393 ft | 247 kts | 90° |
| 2026-04-27 17:18 | 63.03930 | -29.71015 | 24395 ft | 247 kts | 90° |
| 2026-04-27 17:18 | 63.04574 | -29.66213 | 24394 ft | 247 kts | 90° |
| 2026-04-27 17:19 | 63.05059 | -29.62588 | 24393 ft | 247 kts | 90° |
| 2026-04-27 17:19 | 63.05543 | -29.58960 | 24396 ft | 247 kts | 90° |
| 2026-04-27 17:19 | 63.06028 | -29.55326 | 24398 ft | 247 kts | 90° |
| 2026-04-27 17:19 | 63.06347 | -29.52919 | 24397 ft | 247 kts | 90° |
| 2026-04-27 17:20 | 63.06831 | -29.49278 | 24397 ft | 247 kts | 90° |
| 2026-04-27 17:20 | 63.07312 | -29.45641 | 24399 ft | 247 kts | 90° |
| 2026-04-27 17:20 | 63.07793 | -29.42001 | 24403 ft | 247 kts | 90° |
| 2026-04-27 17:20 | 63.08429 | -29.37170 | 24401 ft | 248 kts | 90° |
| 2026-04-27 17:21 | 63.08908 | -29.33523 | 24401 ft | 247 kts | 90° |
| 2026-04-27 17:21 | 63.09387 | -29.29874 | 24404 ft | 247 kts | 90° |
| 2026-04-27 17:21 | 63.09703 | -29.27457 | 24400 ft | 248 kts | 90° |
| 2026-04-27 17:21 | 63.10180 | -29.23803 | 24401 ft | 248 kts | 90° |
| 2026-04-27 17:22 | 63.10657 | -29.20145 | 24404 ft | 248 kts | 90° |
| 2026-04-27 17:22 | 63.11132 | -29.16486 | 24404 ft | 248 kts | 90° |
| 2026-04-27 17:22 | 63.11607 | -29.12824 | 24406 ft | 248 kts | 90° |
| 2026-04-27 17:22 | 63.12081 | -29.09162 | 24407 ft | 248 kts | 90° |
| 2026-04-27 17:23 | 63.12707 | -29.04306 | 24413 ft | 248 kts | 90° |
| 2026-04-27 17:23 | 63.13027 | -29.01828 | 24409 ft | 248 kts | 90° |
| 2026-04-27 17:23 | 63.13498 | -28.98156 | 24417 ft | 248 kts | 91° |
| 2026-04-27 17:23 | 63.13962 | -28.94541 | 24410 ft | 248 kts | 91° |
| 2026-04-27 17:24 | 63.14432 | -28.90863 | 24414 ft | 248 kts | 91° |
| 2026-04-27 17:24 | 63.14901 | -28.87192 | 24408 ft | 248 kts | 91° |
| 2026-04-27 17:24 | 63.15368 | -28.83515 | 24417 ft | 248 kts | 91° |
| 2026-04-27 17:24 | 63.15837 | -28.79830 | 24417 ft | 249 kts | 91° |
| 2026-04-27 17:25 | 63.16302 | -28.76150 | 24418 ft | 249 kts | 91° |
| 2026-04-27 17:25 | 63.16769 | -28.72460 | 24417 ft | 249 kts | 91° |
| 2026-04-27 17:25 | 63.17234 | -28.68768 | 24421 ft | 249 kts | 91° |
| 2026-04-27 17:25 | 63.17693 | -28.65123 | 24424 ft | 249 kts | 91° |
| 2026-04-27 17:26 | 63.18157 | -28.61426 | 24428 ft | 249 kts | 91° |
| 2026-04-27 17:26 | 63.18620 | -28.57727 | 24426 ft | 249 kts | 91° |
| 2026-04-27 17:26 | 63.19083 | -28.54020 | 24429 ft | 250 kts | 91° |
| 2026-04-27 17:26 | 63.19545 | -28.50311 | 24433 ft | 250 kts | 91° |
| 2026-04-27 17:27 | 63.20007 | -28.46599 | 24432 ft | 250 kts | 91° |
| 2026-04-27 17:27 | 63.20467 | -28.42888 | 24433 ft | 250 kts | 92° |
| 2026-04-27 17:27 | 63.20926 | -28.39178 | 24436 ft | 250 kts | 92° |
| 2026-04-27 17:27 | 63.21379 | -28.35500 | 24438 ft | 250 kts | 92° |
| 2026-04-27 17:28 | 63.21838 | -28.31774 | 24436 ft | 251 kts | 92° |
| 2026-04-27 17:28 | 63.22296 | -28.28042 | 24439 ft | 251 kts | 92° |
| 2026-04-27 17:28 | 63.23210 | -28.20572 | 24448 ft | 251 kts | 92° |
| 2026-04-27 17:29 | 63.23666 | -28.16833 | 24443 ft | 251 kts | 92° |
| 2026-04-27 17:29 | 63.24121 | -28.13092 | 24444 ft | 251 kts | 92° |
| 2026-04-27 17:29 | 63.24575 | -28.09348 | 24454 ft | 251 kts | 92° |
| 2026-04-27 17:29 | 63.25022 | -28.05655 | 24450 ft | 251 kts | 92° |
| 2026-04-27 17:30 | 63.25474 | -28.01908 | 24452 ft | 251 kts | 92° |
| 2026-04-27 17:30 | 63.26376 | -27.94405 | 24452 ft | 252 kts | 93° |
| 2026-04-27 17:30 | 63.26826 | -27.90647 | 24456 ft | 252 kts | 93° |
| 2026-04-27 17:31 | 63.27276 | -27.86887 | 24459 ft | 252 kts | 93° |
| 2026-04-27 17:31 | 63.27724 | -27.83126 | 24463 ft | 252 kts | 93° |
| 2026-04-27 17:31 | 63.28173 | -27.79351 | 24463 ft | 252 kts | 93° |
| 2026-04-27 17:31 | 63.28620 | -27.75582 | 24467 ft | 253 kts | 93° |
| 2026-04-27 17:32 | 63.29060 | -27.71860 | 24470 ft | 253 kts | 93° |
| 2026-04-27 17:32 | 63.29951 | -27.64297 | 24476 ft | 253 kts | 93° |
| 2026-04-27 17:32 | 63.30396 | -27.60504 | 24476 ft | 254 kts | 94° |
| 2026-04-27 17:33 | 63.30841 | -27.56708 | 24480 ft | 254 kts | 94° |
| 2026-04-27 17:33 | 63.31284 | -27.52910 | 24477 ft | 254 kts | 94° |
| 2026-04-27 17:33 | 63.31727 | -27.49110 | 24484 ft | 254 kts | 94° |
| 2026-04-27 17:33 | 63.32169 | -27.45300 | 24487 ft | 254 kts | 94° |
| 2026-04-27 17:34 | 63.32605 | -27.41540 | 24486 ft | 254 kts | 94° |
| 2026-04-27 17:34 | 63.33046 | -27.37726 | 24491 ft | 255 kts | 94° |
| 2026-04-27 17:34 | 63.33486 | -27.33911 | 24494 ft | 255 kts | 94° |
| 2026-04-27 17:34 | 63.33925 | -27.30090 | 24492 ft | 255 kts | 94° |
| 2026-04-27 17:35 | 63.34363 | -27.26271 | 24495 ft | 255 kts | 94° |
| 2026-04-27 17:35 | 63.34800 | -27.22455 | 24499 ft | 255 kts | 94° |
| 2026-04-27 17:35 | 63.35237 | -27.18623 | 24502 ft | 255 kts | 94° |
| 2026-04-27 17:35 | 63.35672 | -27.14794 | 24502 ft | 255 kts | 95° |
| 2026-04-27 17:36 | 63.36101 | -27.11016 | 24504 ft | 255 kts | 95° |
| 2026-04-27 17:36 | 63.36535 | -27.07185 | 24502 ft | 255 kts | 95° |
| 2026-04-27 17:36 | 63.36968 | -27.03348 | 24509 ft | 255 kts | 95° |
| 2026-04-27 17:36 | 63.37400 | -26.99507 | 24510 ft | 255 kts | 95° |
| 2026-04-27 17:37 | 63.37831 | -26.95669 | 24513 ft | 255 kts | 95° |
| 2026-04-27 17:37 | 63.38261 | -26.91826 | 24519 ft | 256 kts | 95° |
| 2026-04-27 17:37 | 63.38797 | -26.87975 | 24516 ft | 262 kts | 89° |
| 2026-04-27 17:37 | 63.39360 | -26.84121 | 24518 ft | 261 kts | 90° |
| 2026-04-27 17:38 | 63.39906 | -26.80310 | 24522 ft | 262 kts | 90° |
| 2026-04-27 17:38 | 63.40460 | -26.76440 | 24523 ft | 262 kts | 90° |
| 2026-04-27 17:38 | 63.41018 | -26.72560 | 24527 ft | 263 kts | 90° |
| 2026-04-27 17:38 | 63.41576 | -26.68667 | 24526 ft | 263 kts | 90° |
| 2026-04-27 17:39 | 63.42133 | -26.64771 | 24529 ft | 264 kts | 90° |
| 2026-04-27 17:39 | 63.42690 | -26.60872 | 24530 ft | 264 kts | 90° |
| 2026-04-27 17:39 | 63.43245 | -26.56967 | 24535 ft | 264 kts | 90° |
| 2026-04-27 17:39 | 63.43800 | -26.53063 | 24534 ft | 264 kts | 90° |
| 2026-04-27 17:40 | 63.44353 | -26.49159 | 24540 ft | 263 kts | 90° |
| 2026-04-27 17:40 | 63.44898 | -26.45306 | 24539 ft | 263 kts | 90° |
| 2026-04-27 17:40 | 63.45447 | -26.41403 | 24542 ft | 263 kts | 91° |
| 2026-04-27 17:40 | 63.45998 | -26.37494 | 24545 ft | 263 kts | 91° |
| 2026-04-27 17:41 | 63.46545 | -26.33590 | 24546 ft | 264 kts | 91° |
| 2026-04-27 17:41 | 63.47093 | -26.29679 | 24547 ft | 264 kts | 91° |
| 2026-04-27 17:41 | 63.47640 | -26.25760 | 24554 ft | 264 kts | 91° |
| 2026-04-27 17:41 | 63.48187 | -26.21838 | 24557 ft | 264 kts | 91° |
| 2026-04-27 17:42 | 63.48726 | -26.17965 | 24553 ft | 264 kts | 91° |
| 2026-04-27 17:42 | 63.49270 | -26.14038 | 24556 ft | 264 kts | 91° |
| 2026-04-27 17:42 | 63.49814 | -26.10109 | 24562 ft | 264 kts | 91° |
| 2026-04-27 17:42 | 63.50357 | -26.06174 | 24564 ft | 265 kts | 91° |
| 2026-04-27 17:43 | 63.50900 | -26.02231 | 24568 ft | 265 kts | 91° |
| 2026-04-27 17:43 | 63.51442 | -25.98287 | 24569 ft | 265 kts | 91° |
| 2026-04-27 17:43 | 63.51984 | -25.94341 | 24575 ft | 265 kts | 91° |
| 2026-04-27 17:43 | 63.52524 | -25.90390 | 24574 ft | 265 kts | 91° |
| 2026-04-27 17:44 | 63.53055 | -25.86494 | 24583 ft | 265 kts | 91° |
| 2026-04-27 17:44 | 63.53583 | -25.82620 | 24575 ft | 265 kts | 91° |
| 2026-04-27 17:44 | 63.54120 | -25.78665 | 24586 ft | 265 kts | 91° |
| 2026-04-27 17:44 | 63.54656 | -25.74705 | 24585 ft | 266 kts | 91° |
| 2026-04-27 17:45 | 63.55192 | -25.70738 | 24585 ft | 266 kts | 91° |
| 2026-04-27 17:45 | 63.55728 | -25.66765 | 24591 ft | 266 kts | 91° |
| 2026-04-27 17:45 | 63.56263 | -25.62784 | 24590 ft | 266 kts | 91° |
| 2026-04-27 17:45 | 63.56798 | -25.58804 | 24594 ft | 266 kts | 91° |
| 2026-04-27 17:46 | 63.57329 | -25.54827 | 24593 ft | 266 kts | 91° |
| 2026-04-27 17:46 | 63.57854 | -25.50900 | 24598 ft | 266 kts | 91° |
| 2026-04-27 17:46 | 63.58384 | -25.46914 | 24603 ft | 267 kts | 91° |
| 2026-04-27 17:46 | 63.58914 | -25.42923 | 24604 ft | 266 kts | 91° |
| 2026-04-27 17:47 | 63.59443 | -25.38940 | 24609 ft | 266 kts | 91° |
| 2026-04-27 17:47 | 63.59792 | -25.36297 | 24606 ft | 266 kts | 91° |
| 2026-04-27 17:47 | 63.60496 | -25.30963 | 24612 ft | 266 kts | 91° |
| 2026-04-27 17:47 | 63.61020 | -25.26975 | 24612 ft | 266 kts | 91° |
| 2026-04-27 17:48 | 63.61544 | -25.22984 | 24617 ft | 266 kts | 91° |
| 2026-04-27 17:48 | 63.62067 | -25.18991 | 24618 ft | 266 kts | 91° |
| 2026-04-27 17:48 | 63.62582 | -25.15047 | 24621 ft | 266 kts | 91° |
| 2026-04-27 17:48 | 63.63102 | -25.11050 | 24622 ft | 266 kts | 91° |
| 2026-04-27 17:49 | 63.63621 | -25.07054 | 24624 ft | 266 kts | 91° |
| 2026-04-27 17:49 | 63.64140 | -25.03054 | 24622 ft | 266 kts | 91° |
| 2026-04-27 17:49 | 63.64657 | -24.99052 | 24630 ft | 266 kts | 91° |
| 2026-04-27 17:49 | 63.65173 | -24.95050 | 24629 ft | 266 kts | 91° |
| 2026-04-27 17:50 | 63.65688 | -24.91048 | 24634 ft | 266 kts | 91° |
| 2026-04-27 17:50 | 63.66772 | -24.83098 | 24639 ft | 277 kts | 80° |
| 2026-04-27 17:50 | 63.67879 | -24.79364 | 24630 ft | 296 kts | 55° |
| 2026-04-27 17:51 | 63.69520 | -24.76468 | 24644 ft | 304 kts | 29° |
| 2026-04-27 17:51 | 63.71500 | -24.74900 | 24635 ft | 299 kts | 3° |
| 2026-04-27 17:51 | 63.73548 | -24.74263 | 24655 ft | 297 kts | 360° |
| 2026-04-27 17:51 | 63.75598 | -24.73663 | 24656 ft | 298 kts | 360° |
| 2026-04-27 17:52 | 63.77655 | -24.73052 | 24662 ft | 298 kts | 0° |
| 2026-04-27 17:52 | 63.79711 | -24.72433 | 24659 ft | 298 kts | 0° |
| 2026-04-27 17:52 | 63.81744 | -24.71819 | 24662 ft | 299 kts | 0° |
| 2026-04-27 17:52 | 63.83803 | -24.71198 | 24659 ft | 299 kts | 0° |
| 2026-04-27 17:53 | 63.85865 | -24.70575 | 24663 ft | 299 kts | 0° |
| 2026-04-27 17:53 | 63.87958 | -24.69949 | 24397 ft | 310 kts | 0° |
| 2026-04-27 17:53 | 63.90130 | -24.69295 | 24054 ft | 318 kts | 1° |
| 2026-04-27 17:53 | 63.92342 | -24.68614 | 23722 ft | 323 kts | 1° |
| 2026-04-27 17:54 | 63.94580 | -24.67930 | 23382 ft | 326 kts | 1° |
| 2026-04-27 17:54 | 63.96833 | -24.67243 | 22993 ft | 327 kts | 1° |
| 2026-04-27 17:54 | 63.99064 | -24.66564 | 22567 ft | 328 kts | 1° |
| 2026-04-27 17:54 | 64.01328 | -24.65871 | 22139 ft | 329 kts | 1° |
| 2026-04-27 17:55 | 64.03593 | -24.65178 | 21716 ft | 328 kts | 2° |
| 2026-04-27 17:55 | 64.05853 | -24.64484 | 21387 ft | 325 kts | 2° |
| 2026-04-27 17:55 | 64.08071 | -24.63798 | 21176 ft | 319 kts | 1° |
| 2026-04-27 17:55 | 64.10254 | -24.63129 | 20965 ft | 315 kts | 1° |
| 2026-04-27 17:56 | 64.12415 | -24.62466 | 20752 ft | 312 kts | 1° |
| 2026-04-27 17:56 | 64.14557 | -24.61807 | 20546 ft | 310 kts | 1° |
| 2026-04-27 17:56 | 64.16689 | -24.61148 | 20344 ft | 308 kts | 1° |
| 2026-04-27 17:56 | 64.18785 | -24.60500 | 20147 ft | 307 kts | 1° |
| 2026-04-27 17:57 | 64.20900 | -24.59844 | 19943 ft | 307 kts | 2° |
| 2026-04-27 17:57 | 64.23010 | -24.59191 | 19742 ft | 306 kts | 2° |
| 2026-04-27 17:57 | 64.25115 | -24.58536 | 19544 ft | 305 kts | 2° |
| 2026-04-27 17:57 | 64.27215 | -24.57883 | 19346 ft | 304 kts | 2° |
| 2026-04-27 17:58 | 64.29307 | -24.57230 | 19158 ft | 303 kts | 2° |
| 2026-04-27 17:58 | 64.31399 | -24.56577 | 18905 ft | 305 kts | 2° |
| 2026-04-27 17:58 | 64.33528 | -24.55917 | 18497 ft | 312 kts | 2° |
| 2026-04-27 17:58 | 64.35688 | -24.55238 | 18109 ft | 315 kts | 2° |
| 2026-04-27 17:59 | 64.37832 | -24.54563 | 17692 ft | 316 kts | 3° |
| 2026-04-27 17:59 | 64.40010 | -24.53876 | 17239 ft | 316 kts | 3° |
| 2026-04-27 17:59 | 64.42182 | -24.53193 | 16798 ft | 315 kts | 3° |
| 2026-04-27 17:59 | 64.44348 | -24.52510 | 16359 ft | 314 kts | 3° |
| 2026-04-27 18:00 | 64.46508 | -24.51828 | 15921 ft | 312 kts | 4° |
| 2026-04-27 18:00 | 64.48633 | -24.50823 | 15494 ft | 313 kts | 18° |
| 2026-04-27 18:00 | 64.50587 | -24.48654 | 15072 ft | 310 kts | 35° |
| 2026-04-27 18:00 | 64.52230 | -24.45513 | 14653 ft | 302 kts | 53° |
| 2026-04-27 18:01 | 64.53467 | -24.41687 | 14252 ft | 291 kts | 69° |
| 2026-04-27 18:01 | 64.54263 | -24.37500 | 13839 ft | 277 kts | 84° |
| 2026-04-27 18:01 | 64.54628 | -24.33298 | 13443 ft | 262 kts | 98° |
| 2026-04-27 18:01 | 64.54618 | -24.29193 | 12997 ft | 247 kts | 111° |
| 2026-04-27 18:02 | 64.54325 | -24.25352 | 12554 ft | 239 kts | 116° |
| 2026-04-27 18:02 | 64.54012 | -24.21555 | 12110 ft | 239 kts | 116° |
| 2026-04-27 18:02 | 64.53704 | -24.17776 | 11671 ft | 237 kts | 116° |
| 2026-04-27 18:02 | 64.53396 | -24.14022 | 11246 ft | 236 kts | 116° |
| 2026-04-27 18:03 | 64.53086 | -24.10297 | 10821 ft | 234 kts | 116° |
| 2026-04-27 18:03 | 64.52785 | -24.06660 | 10503 ft | 229 kts | 116° |
| 2026-04-27 18:03 | 64.52490 | -24.03079 | 10257 ft | 223 kts | 116° |
| 2026-04-27 18:03 | 64.52195 | -23.99577 | 10012 ft | 220 kts | 116° |
| 2026-04-27 18:04 | 64.51901 | -23.96104 | 9771 ft | 218 kts | 117° |
| 2026-04-27 18:04 | 64.51612 | -23.92665 | 9527 ft | 216 kts | 117° |
| 2026-04-27 18:04 | 64.51323 | -23.89253 | 9255 ft | 215 kts | 117° |
| 2026-04-27 18:04 | 64.51034 | -23.85846 | 8995 ft | 215 kts | 116° |
| 2026-04-27 18:05 | 64.50744 | -23.82434 | 8731 ft | 215 kts | 116° |
| 2026-04-27 18:05 | 64.50454 | -23.79027 | 8474 ft | 215 kts | 116° |
| 2026-04-27 18:05 | 64.50168 | -23.75672 | 8215 ft | 215 kts | 116° |
| 2026-04-27 18:05 | 64.49878 | -23.72281 | 7961 ft | 214 kts | 116° |
| 2026-04-27 18:06 | 64.49588 | -23.68905 | 7710 ft | 213 kts | 116° |
| 2026-04-27 18:06 | 64.49298 | -23.65542 | 7456 ft | 212 kts | 116° |
| 2026-04-27 18:06 | 64.49010 | -23.62196 | 7202 ft | 211 kts | 116° |
| 2026-04-27 18:06 | 64.48721 | -23.58862 | 6951 ft | 210 kts | 116° |
| 2026-04-27 18:07 | 64.48432 | -23.55543 | 6729 ft | 209 kts | 115° |
| 2026-04-27 18:07 | 64.48159 | -23.52328 | 6720 ft | 198 kts | 116° |
| 2026-04-27 18:07 | 64.47894 | -23.49286 | 6711 ft | 192 kts | 117° |
| 2026-04-27 18:07 | 64.47629 | -23.46283 | 6715 ft | 188 kts | 117° |
| 2026-04-27 18:08 | 64.47367 | -23.43332 | 6714 ft | 186 kts | 117° |
| 2026-04-27 18:08 | 64.47110 | -23.40409 | 6722 ft | 184 kts | 117° |
| 2026-04-27 18:08 | 64.46853 | -23.37504 | 6718 ft | 183 kts | 117° |
| 2026-04-27 18:08 | 64.46597 | -23.34614 | 6720 ft | 183 kts | 118° |
| 2026-04-27 18:09 | 64.46342 | -23.31734 | 6722 ft | 182 kts | 118° |
| 2026-04-27 18:09 | 64.46086 | -23.28862 | 6728 ft | 182 kts | 118° |
| 2026-04-27 18:09 | 64.45830 | -23.25986 | 6729 ft | 182 kts | 118° |
| 2026-04-27 18:09 | 64.45577 | -23.23156 | 6729 ft | 182 kts | 118° |
| 2026-04-27 18:10 | 64.45320 | -23.20287 | 6726 ft | 182 kts | 118° |
| 2026-04-27 18:10 | 64.45063 | -23.17416 | 6732 ft | 182 kts | 118° |
| 2026-04-27 18:10 | 64.44806 | -23.14553 | 6735 ft | 181 kts | 118° |
| 2026-04-27 18:10 | 64.44549 | -23.11696 | 6736 ft | 181 kts | 118° |
| 2026-04-27 18:11 | 64.44291 | -23.08845 | 6737 ft | 180 kts | 118° |
| 2026-04-27 18:11 | 64.44034 | -23.06005 | 6738 ft | 180 kts | 118° |
| 2026-04-27 18:11 | 64.43776 | -23.03167 | 6740 ft | 180 kts | 118° |
| 2026-04-27 18:11 | 64.43518 | -23.00333 | 6743 ft | 180 kts | 118° |
| 2026-04-27 18:12 | 64.43264 | -22.97539 | 6743 ft | 180 kts | 118° |
| 2026-04-27 18:12 | 64.43004 | -22.94703 | 6746 ft | 180 kts | 118° |
| 2026-04-27 18:12 | 64.42744 | -22.91862 | 6750 ft | 180 kts | 118° |
| 2026-04-27 18:12 | 64.42484 | -22.89022 | 6753 ft | 180 kts | 118° |
| 2026-04-27 18:13 | 64.42223 | -22.86185 | 6749 ft | 180 kts | 118° |
| 2026-04-27 18:13 | 64.41962 | -22.83359 | 6752 ft | 179 kts | 118° |
| 2026-04-27 18:13 | 64.41702 | -22.80537 | 6752 ft | 179 kts | 118° |
| 2026-04-27 18:13 | 64.41440 | -22.77719 | 6754 ft | 179 kts | 118° |
| 2026-04-27 18:14 | 64.41183 | -22.74941 | 6752 ft | 179 kts | 118° |
| 2026-04-27 18:14 | 64.40920 | -22.72122 | 6759 ft | 179 kts | 118° |
| 2026-04-27 18:14 | 64.40662 | -22.69331 | 6760 ft | 176 kts | 118° |
| 2026-04-27 18:14 | 64.40404 | -22.66573 | 6762 ft | 175 kts | 119° |
| 2026-04-27 18:15 | 64.40140 | -22.63798 | 6636 ft | 180 kts | 118° |
| 2026-04-27 18:15 | 64.39866 | -22.60918 | 6480 ft | 186 kts | 118° |
| 2026-04-27 18:15 | 64.39589 | -22.57967 | 6319 ft | 189 kts | 117° |
| 2026-04-27 18:15 | 64.39162 | -22.55222 | 6143 ft | 171 kts | 139° |
| 2026-04-27 18:16 | 64.38433 | -22.53114 | 5974 ft | 167 kts | 143° |
| 2026-04-27 18:16 | 64.37691 | -22.51046 | 5790 ft | 167 kts | 143° |
| 2026-04-27 18:16 | 64.36956 | -22.49006 | 5620 ft | 167 kts | 143° |
| 2026-04-27 18:16 | 64.36213 | -22.46946 | 5440 ft | 166 kts | 143° |
| 2026-04-27 18:17 | 64.35493 | -22.44938 | 5259 ft | 159 kts | 143° |
| 2026-04-27 18:17 | 64.34797 | -22.43001 | 5076 ft | 155 kts | 143° |
| 2026-04-27 18:17 | 64.34112 | -22.41100 | 4891 ft | 153 kts | 143° |
| 2026-04-27 18:17 | 64.33436 | -22.39217 | 4714 ft | 153 kts | 141° |
| 2026-04-27 18:18 | 64.33135 | -22.36678 | 4515 ft | 185 kts | 99° |
| 2026-04-27 18:18 | 64.33467 | -22.33700 | 4336 ft | 194 kts | 86° |
| 2026-04-27 18:18 | 64.33867 | -22.30775 | 4162 ft | 193 kts | 86° |
| 2026-04-27 18:18 | 64.34276 | -22.27823 | 3979 ft | 193 kts | 86° |
| 2026-04-27 18:19 | 64.34686 | -22.24884 | 3801 ft | 192 kts | 86° |
| 2026-04-27 18:19 | 64.35077 | -22.21953 | 3626 ft | 188 kts | 91° |
| 2026-04-27 18:19 | 64.35319 | -22.19034 | 3442 ft | 184 kts | 95° |
| 2026-04-27 18:19 | 64.35542 | -22.16129 | 3262 ft | 183 kts | 95° |
| 2026-04-27 18:20 | 64.35761 | -22.13242 | 3085 ft | 182 kts | 95° |
| 2026-04-27 18:20 | 64.35981 | -22.10374 | 2906 ft | 180 kts | 95° |
| 2026-04-27 18:20 | 64.36189 | -22.07586 | 2805 ft | 175 kts | 95° |
| 2026-04-27 18:20 | 64.36398 | -22.04897 | 2798 ft | 167 kts | 95° |
| 2026-04-27 18:21 | 64.36403 | -22.02440 | 2794 ft | 141 kts | 121° |
| 2026-04-27 18:21 | 64.36105 | -22.00377 | 2796 ft | 128 kts | 131° |
| 2026-04-27 18:21 | 64.35581 | -21.98931 | 2796 ft | 110 kts | 159° |
| 2026-04-27 18:21 | 64.34888 | -21.98285 | 2794 ft | 106 kts | 171° |
| 2026-04-27 18:22 | 64.34169 | -21.98016 | 2797 ft | 104 kts | 173° |
| 2026-04-27 18:22 | 64.33456 | -21.97784 | 2793 ft | 103 kts | 175° |
| 2026-04-27 18:22 | 64.32763 | -21.97600 | 2798 ft | 99 kts | 176° |
| 2026-04-27 18:22 | 64.32067 | -21.97438 | 2792 ft | 99 kts | 174° |
| 2026-04-27 18:23 | 64.31359 | -21.97274 | 2802 ft | 111 kts | 177° |
| 2026-04-27 18:23 | 64.30578 | -21.97130 | 2800 ft | 112 kts | 177° |
| 2026-04-27 18:23 | 64.29813 | -21.96984 | 2805 ft | 109 kts | 178° |
| 2026-04-27 18:23 | 64.29065 | -21.96840 | 2809 ft | 107 kts | 178° |
| 2026-04-27 18:24 | 64.28330 | -21.96698 | 2799 ft | 105 kts | 178° |
| 2026-04-27 18:24 | 64.27605 | -21.96560 | 2797 ft | 104 kts | 177° |
| 2026-04-27 18:24 | 64.26888 | -21.96423 | 2797 ft | 103 kts | 177° |
| 2026-04-27 18:24 | 64.26185 | -21.96288 | 2796 ft | 103 kts | 178° |
| 2026-04-27 18:25 | 64.25473 | -21.96151 | 2792 ft | 102 kts | 178° |
| 2026-04-27 18:25 | 64.24744 | -21.96014 | 2671 ft | 109 kts | 177° |
| 2026-04-27 18:25 | 64.23972 | -21.95869 | 2503 ft | 112 kts | 177° |
| 2026-04-27 18:25 | 64.23212 | -21.95719 | 2322 ft | 107 kts | 176° |
| 2026-04-27 18:26 | 64.22503 | -21.95582 | 2149 ft | 98 kts | 176° |
| 2026-04-27 18:26 | 64.21842 | -21.95457 | 1999 ft | 94 kts | 175° |
| 2026-04-27 18:26 | 64.21198 | -21.95333 | 1848 ft | 93 kts | 174° |
| 2026-04-27 18:26 | 64.20590 | -21.95216 | 1709 ft | 87 kts | 175° |
| 2026-04-27 18:27 | 64.19997 | -21.95100 | 1569 ft | 85 kts | 175° |
| 2026-04-27 18:27 | 64.19414 | -21.94987 | 1427 ft | 84 kts | 174° |
| 2026-04-27 18:27 | 64.18847 | -21.94878 | 1291 ft | 81 kts | 174° |
| 2026-04-27 18:27 | 64.18298 | -21.94771 | 1160 ft | 74 kts | 173° |
| 2026-04-27 18:28 | 64.17821 | -21.94678 | 1038 ft | 65 kts | 173° |
| 2026-04-27 18:28 | 64.17374 | -21.94595 | 934 ft | 64 kts | 172° |
| 2026-04-27 18:28 | 64.16916 | -21.94505 | 832 ft | 68 kts | 171° |
| 2026-04-27 18:28 | 64.16438 | -21.94421 | 721 ft | 70 kts | 171° |
| 2026-04-27 18:29 | 64.15949 | -21.94326 | 616 ft | 71 kts | 171° |
| 2026-04-27 18:29 | 64.15451 | -21.94228 | 508 ft | 72 kts | 172° |
| 2026-04-27 18:29 | 64.14950 | -21.94188 | 391 ft | 72 kts | 171° |
| 2026-04-27 18:29 | 64.14445 | -21.94039 | 303 ft | 75 kts | 174° |
| 2026-04-27 18:30 | 64.13915 | -21.93957 | 157 ft | 77 kts | 171° |
| 2026-04-27 18:30 | 64.13395 | -21.93855 | 43 ft | 67 kts | 173° |
| 2026-04-27 18:30 | 64.13036 | -21.93782 | 43 ft | 40 kts | 176° |
| 2026-04-27 18:30 | 64.12799 | -21.93735 | 38 ft | 30 kts | 176° |
| 2026-04-27 18:31 | 64.12607 | -21.93700 | 33 ft | 25 kts | 175° |
| 2026-04-27 18:31 | 64.12451 | -21.93643 | 28 ft | 21 kts | 133° |
| 2026-04-27 18:31 | 64.12484 | -21.93432 | 28 ft | 15 kts | 360° |
| 2026-04-27 18:31 | 64.12597 | -21.93452 | 33 ft | 18 kts | 351° |
| 2026-04-27 18:32 | 64.12730 | -21.93488 | 36 ft | 18 kts | 354° |
| 2026-04-27 18:32 | 64.12871 | -21.93501 | 40 ft | 27 kts | 0° |
| 2026-04-27 18:32 | 64.13008 | -21.93565 | 42 ft | 17 kts | 4° |
| 2026-04-27 18:32 | 64.13104 | -21.93543 | 43 ft | 11 kts | 355° |
| 2026-04-27 18:33 | 64.13201 | -21.93522 | 43 ft | 16 kts | 45° |
| 2026-04-27 18:33 | 64.13260 | -21.93355 | 41 ft | 9 kts | 114° |
| 2026-04-27 18:33 | 64.13236 | -21.93330 | 42 ft | 0 kts | 158° |